Main page
METAR-TAF:

METAR-TAF

Airports :

Paya Lebar Air Base

Singapore, Singapore

latitude: 01-22N, longitude: 103-55E, elevation: 18 m

Current weather observation

The report was made 30 minutes ago, at 00:00 UTC
Wind 3 kt from the East/Northeast
Temperature 25°C
Humidity 94%
Pressure 1008 hPa
Visibility: 7000 m
Few clouds at a height of 1600 ft
Broken clouds at a height of 15000 ft

METAR: WSAP 240000Z 07003KT 7000 FEW016 BKN150 25/24 Q1008

Time: 08:30 (00:30 UTC)

Forecast

The report was made 1 hour and 30 minutes ago, at 23:00 UTC
Forecast valid from 24 at 00 UTC to 25 at 06 UTC
Wind 7 kt from the South/Southwest
Visibility 10 km or more
Few clouds at a height of 1800 ft, Cumulonimbus.
Scattered clouds at a height of 2000 ft
Temporary
from 24 at 06 UTC to 24 at 10 UTC
Visibility: 3000 m
Few clouds at a height of 1200 ft, Cumulonimbus.
Broken clouds at a height of 1500 ft
thunderstorm, rain

TAF: WSAP 232300Z 2400/2506 20007KT 9999 FEW018CB SCT020 TEMPO 2406/2410 3000 TSRA FEW012CB BKN015

Weather observations and forecasts of more than 4000 airports (METAR and TAF reports).

The available stations are represented by yellow and red dots on the map.

Hover mouse over dot to see the name of the station.

Then click to see weather observations and forecasts.

To change the map : click on the green buttons with a black cross to zoom in, on the green button with a dash to zoom out, or on the green arrows for adjacent maps.


METAR-TAF: